sensor_id;sensor_type;location;lat;lon;timestamp;temperature;humidity
16627;DHT22;8427;52.204;7.202;2022-07-01T00:01:48;14.60;99.90
16627;DHT22;8427;52.204;7.202;2022-07-01T00:04:18;14.60;99.90
16627;DHT22;8427;52.204;7.202;2022-07-01T00:06:46;14.70;99.90
16627;DHT22;8427;52.204;7.202;2022-07-01T00:09:14;14.50;99.90
16627;DHT22;8427;52.204;7.202;2022-07-01T00:11:43;14.50;99.90
16627;DHT22;8427;52.204;7.202;2022-07-01T00:14:11;14.50;99.90
16627;DHT22;8427;52.204;7.202;2022-07-01T00:16:39;14.50;99.90
16627;DHT22;8427;52.204;7.202;2022-07-01T00:19:07;14.50;99.90
16627;DHT22;8427;52.204;7.202;2022-07-01T00:21:37;14.50;99.90
16627;DHT22;8427;52.204;7.202;2022-07-01T00:24:05;14.60;99.90
16627;DHT22;8427;52.204;7.202;2022-07-01T00:26:34;14.60;99.90
16627;DHT22;8427;52.204;7.202;2022-07-01T00:29:02;14.60;99.90
16627;DHT22;8427;52.204;7.202;2022-07-01T00:31:31;14.60;99.90
16627;DHT22;8427;52.204;7.202;2022-07-01T00:33:59;14.60;99.90
16627;DHT22;8427;52.204;7.202;2022-07-01T00:36:28;14.60;99.90
16627;DHT22;8427;52.204;7.202;2022-07-01T00:38:58;14.50;99.90
16627;DHT22;8427;52.204;7.202;2022-07-01T00:41:27;14.60;99.90
16627;DHT22;8427;52.204;7.202;2022-07-01T00:43:55;14.60;99.90
16627;DHT22;8427;52.204;7.202;2022-07-01T00:46:24;14.60;99.90
16627;DHT22;8427;52.204;7.202;2022-07-01T00:48:56;14.60;99.90
16627;DHT22;8427;52.204;7.202;2022-07-01T00:51:24;14.60;99.90
16627;DHT22;8427;52.204;7.202;2022-07-01T00:53:52;14.60;99.90
16627;DHT22;8427;52.204;7.202;2022-07-01T00:56:23;14.60;99.90
16627;DHT22;8427;52.204;7.202;2022-07-01T00:58:51;14.60;99.90
16627;DHT22;8427;52.204;7.202;2022-07-01T01:01:19;14.60;99.90
16627;DHT22;8427;52.204;7.202;2022-07-01T01:03:49;14.60;99.90
16627;DHT22;8427;52.204;7.202;2022-07-01T01:06:17;14.60;99.90
16627;DHT22;8427;52.204;7.202;2022-07-01T01:08:46;14.60;99.90
16627;DHT22;8427;52.204;7.202;2022-07-01T01:11:16;14.60;99.90
16627;DHT22;8427;52.204;7.202;2022-07-01T01:13:46;14.60;99.90
16627;DHT22;8427;52.204;7.202;2022-07-01T01:16:18;14.70;99.90
16627;DHT22;8427;52.204;7.202;2022-07-01T01:18:47;14.60;99.90
16627;DHT22;8427;52.204;7.202;2022-07-01T01:21:17;14.60;99.90
16627;DHT22;8427;52.204;7.202;2022-07-01T01:23:45;14.70;99.90
16627;DHT22;8427;52.204;7.202;2022-07-01T01:26:17;14.70;99.90
16627;DHT22;8427;52.204;7.202;2022-07-01T01:28:46;14.70;99.90
16627;DHT22;8427;52.204;7.202;2022-07-01T01:31:15;14.60;99.90
16627;DHT22;8427;52.204;7.202;2022-07-01T01:33:44;14.60;99.90
16627;DHT22;8427;52.204;7.202;2022-07-01T01:36:12;14.70;99.90
16627;DHT22;8427;52.204;7.202;2022-07-01T01:38:42;14.70;99.90
16627;DHT22;8427;52.204;7.202;2022-07-01T01:41:10;14.70;99.90
16627;DHT22;8427;52.204;7.202;2022-07-01T01:43:38;14.60;99.90
16627;DHT22;8427;52.204;7.202;2022-07-01T01:46:06;14.60;99.90
16627;DHT22;8427;52.204;7.202;2022-07-01T01:48:35;14.70;99.90
16627;DHT22;8427;52.204;7.202;2022-07-01T01:51:03;14.70;99.90
16627;DHT22;8427;52.204;7.202;2022-07-01T01:53:32;14.70;99.90
16627;DHT22;8427;52.204;7.202;2022-07-01T01:56:01;14.60;99.90
16627;DHT22;8427;52.204;7.202;2022-07-01T01:58:29;14.70;99.90
16627;DHT22;8427;52.204;7.202;2022-07-01T02:00:58;14.60;99.90
16627;DHT22;8427;52.204;7.202;2022-07-01T02:03:26;14.60;99.90
16627;DHT22;8427;52.204;7.202;2022-07-01T02:05:55;14.60;99.90
16627;DHT22;8427;52.204;7.202;2022-07-01T02:08:23;14.50;99.90
16627;DHT22;8427;52.204;7.202;2022-07-01T02:10:51;14.50;99.90
16627;DHT22;8427;52.204;7.202;2022-07-01T02:13:26;14.60;99.90
16627;DHT22;8427;52.204;7.202;2022-07-01T02:15:54;14.60;99.90
16627;DHT22;8427;52.204;7.202;2022-07-01T02:18:23;14.60;99.90
16627;DHT22;8427;52.204;7.202;2022-07-01T02:20:51;14.50;99.90
16627;DHT22;8427;52.204;7.202;2022-07-01T02:23:20;14.50;99.90
16627;DHT22;8427;52.204;7.202;2022-07-01T02:25:48;14.50;99.90
16627;DHT22;8427;52.204;7.202;2022-07-01T02:28:17;14.40;99.90
16627;DHT22;8427;52.204;7.202;2022-07-01T02:30:46;14.50;99.90
16627;DHT22;8427;52.204;7.202;2022-07-01T02:33:15;14.50;99.90
16627;DHT22;8427;52.204;7.202;2022-07-01T02:35:43;14.50;99.90
16627;DHT22;8427;52.204;7.202;2022-07-01T02:38:15;14.40;99.90
16627;DHT22;8427;52.204;7.202;2022-07-01T02:43:12;14.30;99.90
16627;DHT22;8427;52.204;7.202;2022-07-01T02:45:40;14.30;99.90
16627;DHT22;8427;52.204;7.202;2022-07-01T02:48:10;14.30;99.90
16627;DHT22;8427;52.204;7.202;2022-07-01T02:50:38;14.30;99.90
16627;DHT22;8427;52.204;7.202;2022-07-01T02:53:06;14.30;99.90
16627;DHT22;8427;52.204;7.202;2022-07-01T02:55:34;14.30;99.90
16627;DHT22;8427;52.204;7.202;2022-07-01T02:58:02;14.30;99.90
16627;DHT22;8427;52.204;7.202;2022-07-01T03:00:31;14.30;99.90
16627;DHT22;8427;52.204;7.202;2022-07-01T03:02:59;14.30;99.90
16627;DHT22;8427;52.204;7.202;2022-07-01T03:05:29;14.30;99.90
16627;DHT22;8427;52.204;7.202;2022-07-01T03:07:57;14.40;99.90
16627;DHT22;8427;52.204;7.202;2022-07-01T03:10:25;14.40;99.90
16627;DHT22;8427;52.204;7.202;2022-07-01T03:12:53;14.30;99.90
16627;DHT22;8427;52.204;7.202;2022-07-01T03:15:22;14.30;99.90
16627;DHT22;8427;52.204;7.202;2022-07-01T03:17:50;14.30;99.90
16627;DHT22;8427;52.204;7.202;2022-07-01T03:20:19;14.30;99.90
16627;DHT22;8427;52.204;7.202;2022-07-01T03:22:48;14.30;99.90
16627;DHT22;8427;52.204;7.202;2022-07-01T03:25:17;14.30;99.90
16627;DHT22;8427;52.204;7.202;2022-07-01T03:27:45;14.30;99.90
16627;DHT22;8427;52.204;7.202;2022-07-01T03:30:15;14.30;99.90
16627;DHT22;8427;52.204;7.202;2022-07-01T03:32:45;14.30;99.90
16627;DHT22;8427;52.204;7.202;2022-07-01T03:35:13;14.30;99.90
16627;DHT22;8427;52.204;7.202;2022-07-01T03:38:01;14.30;99.90
16627;DHT22;8427;52.204;7.202;2022-07-01T03:40:30;14.40;99.90
16627;DHT22;8427;52.204;7.202;2022-07-01T03:42:58;14.40;99.90
16627;DHT22;8427;52.204;7.202;2022-07-01T03:45:26;14.40;99.90
16627;DHT22;8427;52.204;7.202;2022-07-01T03:47:55;14.40;99.90
16627;DHT22;8427;52.204;7.202;2022-07-01T03:50:24;14.40;99.90
16627;DHT22;8427;52.204;7.202;2022-07-01T03:52:53;14.40;99.90
16627;DHT22;8427;52.204;7.202;2022-07-01T03:55:36;14.40;99.90
16627;DHT22;8427;52.204;7.202;2022-07-01T03:58:05;14.40;99.90
16627;DHT22;8427;52.204;7.202;2022-07-01T04:00:34;14.30;99.90
16627;DHT22;8427;52.204;7.202;2022-07-01T04:03:02;14.30;99.90
16627;DHT22;8427;52.204;7.202;2022-07-01T04:05:33;14.30;99.90
16627;DHT22;8427;52.204;7.202;2022-07-01T04:08:03;14.30;99.90
16627;DHT22;8427;52.204;7.202;2022-07-01T04:10:32;14.40;99.90
16627;DHT22;8427;52.204;7.202;2022-07-01T04:13:02;14.30;99.90
16627;DHT22;8427;52.204;7.202;2022-07-01T04:15:50;14.30;99.90
16627;DHT22;8427;52.204;7.202;2022-07-01T04:18:19;14.30;99.90
16627;DHT22;8427;52.204;7.202;2022-07-01T04:20:47;14.20;99.90
16627;DHT22;8427;52.204;7.202;2022-07-01T04:23:36;14.20;99.90
16627;DHT22;8427;52.204;7.202;2022-07-01T04:26:03;14.20;99.90
16627;DHT22;8427;52.204;7.202;2022-07-01T04:28:53;14.30;99.90
16627;DHT22;8427;52.204;7.202;2022-07-01T04:31:22;14.20;99.90
16627;DHT22;8427;52.204;7.202;2022-07-01T04:33:50;14.20;99.90
16627;DHT22;8427;52.204;7.202;2022-07-01T04:36:18;14.20;99.90
16627;DHT22;8427;52.204;7.202;2022-07-01T04:38:47;14.20;99.90
16627;DHT22;8427;52.204;7.202;2022-07-01T04:41:15;14.30;99.90
16627;DHT22;8427;52.204;7.202;2022-07-01T04:44:03;14.20;99.90
16627;DHT22;8427;52.204;7.202;2022-07-01T04:46:31;14.20;99.90
16627;DHT22;8427;52.204;7.202;2022-07-01T04:48:59;14.30;99.90
16627;DHT22;8427;52.204;7.202;2022-07-01T04:51:28;14.20;99.90
16627;DHT22;8427;52.204;7.202;2022-07-01T04:53:56;14.20;99.90
16627;DHT22;8427;52.204;7.202;2022-07-01T04:56:24;14.20;99.90
16627;DHT22;8427;52.204;7.202;2022-07-01T04:58:53;14.20;99.90
16627;DHT22;8427;52.204;7.202;2022-07-01T05:01:23;14.30;99.90
16627;DHT22;8427;52.204;7.202;2022-07-01T05:03:51;14.30;99.90
16627;DHT22;8427;52.204;7.202;2022-07-01T05:06:20;14.30;99.90
16627;DHT22;8427;52.204;7.202;2022-07-01T05:08:48;14.40;99.90
16627;DHT22;8427;52.204;7.202;2022-07-01T05:11:16;14.40;99.90
16627;DHT22;8427;52.204;7.202;2022-07-01T05:13:45;14.40;99.90
16627;DHT22;8427;52.204;7.202;2022-07-01T05:16:13;14.50;99.90
16627;DHT22;8427;52.204;7.202;2022-07-01T05:18:43;14.50;99.90
16627;DHT22;8427;52.204;7.202;2022-07-01T05:21:30;14.50;99.90
16627;DHT22;8427;52.204;7.202;2022-07-01T05:24:15;14.50;99.90
16627;DHT22;8427;52.204;7.202;2022-07-01T05:26:44;14.50;99.90
16627;DHT22;8427;52.204;7.202;2022-07-01T05:29:12;14.60;99.90
16627;DHT22;8427;52.204;7.202;2022-07-01T05:31:40;14.60;99.90
16627;DHT22;8427;52.204;7.202;2022-07-01T05:34:11;14.50;99.90
16627;DHT22;8427;52.204;7.202;2022-07-01T05:36:39;14.60;99.90
16627;DHT22;8427;52.204;7.202;2022-07-01T05:39:07;14.50;99.90
16627;DHT22;8427;52.204;7.202;2022-07-01T05:41:36;14.60;99.90
16627;DHT22;8427;52.204;7.202;2022-07-01T05:44:04;14.60;99.90
16627;DHT22;8427;52.204;7.202;2022-07-01T05:46:32;14.70;99.90
16627;DHT22;8427;52.204;7.202;2022-07-01T05:49:01;14.70;99.90
16627;DHT22;8427;52.204;7.202;2022-07-01T05:51:31;14.70;99.90
16627;DHT22;8427;52.204;7.202;2022-07-01T05:53:59;14.80;99.90
16627;DHT22;8427;52.204;7.202;2022-07-01T05:56:28;14.80;99.90
16627;DHT22;8427;52.204;7.202;2022-07-01T05:58:56;14.90;99.90
16627;DHT22;8427;52.204;7.202;2022-07-01T06:01:24;14.80;99.90
16627;DHT22;8427;52.204;7.202;2022-07-01T06:03:52;14.80;99.90
16627;DHT22;8427;52.204;7.202;2022-07-01T06:06:21;14.80;99.90
16627;DHT22;8427;52.204;7.202;2022-07-01T06:08:51;14.90;99.90
16627;DHT22;8427;52.204;7.202;2022-07-01T06:11:19;15.00;99.90
16627;DHT22;8427;52.204;7.202;2022-07-01T06:13:47;15.00;99.90
16627;DHT22;8427;52.204;7.202;2022-07-01T06:16:15;15.00;99.90
16627;DHT22;8427;52.204;7.202;2022-07-01T06:18:43;15.10;99.90
16627;DHT22;8427;52.204;7.202;2022-07-01T06:21:12;15.10;99.90
16627;DHT22;8427;52.204;7.202;2022-07-01T06:23:42;15.20;99.90
16627;DHT22;8427;52.204;7.202;2022-07-01T06:26:11;15.20;99.90
16627;DHT22;8427;52.204;7.202;2022-07-01T06:28:40;15.20;99.90
16627;DHT22;8427;52.204;7.202;2022-07-01T06:31:08;15.10;99.90
16627;DHT22;8427;52.204;7.202;2022-07-01T06:33:36;15.10;99.90
16627;DHT22;8427;52.204;7.202;2022-07-01T06:36:05;15.10;99.90
16627;DHT22;8427;52.204;7.202;2022-07-01T06:38:33;15.20;99.90
16627;DHT22;8427;52.204;7.202;2022-07-01T06:41:02;15.20;99.90
16627;DHT22;8427;52.204;7.202;2022-07-01T06:43:48;15.20;99.90
16627;DHT22;8427;52.204;7.202;2022-07-01T06:46:16;15.30;99.90
16627;DHT22;8427;52.204;7.202;2022-07-01T06:48:45;15.30;99.90
16627;DHT22;8427;52.204;7.202;2022-07-01T06:51:13;15.20;99.90
16627;DHT22;8427;52.204;7.202;2022-07-01T06:53:41;15.20;99.90
16627;DHT22;8427;52.204;7.202;2022-07-01T06:56:11;15.10;99.90
16627;DHT22;8427;52.204;7.202;2022-07-01T06:58:39;15.20;99.90
16627;DHT22;8427;52.204;7.202;2022-07-01T07:01:09;15.40;99.90
16627;DHT22;8427;52.204;7.202;2022-07-01T07:03:37;15.50;99.90
16627;DHT22;8427;52.204;7.202;2022-07-01T07:06:05;15.60;99.90
16627;DHT22;8427;52.204;7.202;2022-07-01T07:08:33;15.70;99.90
16627;DHT22;8427;52.204;7.202;2022-07-01T07:11:02;16.00;99.90
16627;DHT22;8427;52.204;7.202;2022-07-01T07:13:30;16.00;99.90
16627;DHT22;8427;52.204;7.202;2022-07-01T07:15:58;16.10;99.90
16627;DHT22;8427;52.204;7.202;2022-07-01T07:18:28;16.10;99.90
16627;DHT22;8427;52.204;7.202;2022-07-01T07:20:55;16.30;99.90
16627;DHT22;8427;52.204;7.202;2022-07-01T07:23:26;16.30;99.90
16627;DHT22;8427;52.204;7.202;2022-07-01T07:25:54;16.20;99.90
16627;DHT22;8427;52.204;7.202;2022-07-01T07:28:23;16.20;99.90
16627;DHT22;8427;52.204;7.202;2022-07-01T07:30:51;16.10;99.90
16627;DHT22;8427;52.204;7.202;2022-07-01T07:33:19;16.10;99.90
16627;DHT22;8427;52.204;7.202;2022-07-01T07:35:48;16.30;99.90
16627;DHT22;8427;52.204;7.202;2022-07-01T07:38:16;16.40;99.90
16627;DHT22;8427;52.204;7.202;2022-07-01T07:40:44;16.50;99.90
16627;DHT22;8427;52.204;7.202;2022-07-01T07:43:13;16.50;99.90
16627;DHT22;8427;52.204;7.202;2022-07-01T07:45:41;16.50;99.90
16627;DHT22;8427;52.204;7.202;2022-07-01T07:48:09;16.40;99.90
16627;DHT22;8427;52.204;7.202;2022-07-01T07:50:37;16.40;99.90
16627;DHT22;8427;52.204;7.202;2022-07-01T07:53:06;16.50;99.90
16627;DHT22;8427;52.204;7.202;2022-07-01T07:55:35;16.80;99.90
16627;DHT22;8427;52.204;7.202;2022-07-01T07:58:04;16.80;99.90
16627;DHT22;8427;52.204;7.202;2022-07-01T08:00:32;16.80;99.90
16627;DHT22;8427;52.204;7.202;2022-07-01T08:03:06;17.00;99.90
16627;DHT22;8427;52.204;7.202;2022-07-01T08:05:34;17.10;99.90
16627;DHT22;8427;52.204;7.202;2022-07-01T08:08:02;17.10;99.90
16627;DHT22;8427;52.204;7.202;2022-07-01T08:10:32;17.10;99.90
16627;DHT22;8427;52.204;7.202;2022-07-01T08:13:00;17.10;99.90
16627;DHT22;8427;52.204;7.202;2022-07-01T08:15:31;17.10;99.90
16627;DHT22;8427;52.204;7.202;2022-07-01T08:17:59;17.30;99.90
16627;DHT22;8427;52.204;7.202;2022-07-01T08:20:28;17.30;99.90
16627;DHT22;8427;52.204;7.202;2022-07-01T08:22:56;17.60;99.90
16627;DHT22;8427;52.204;7.202;2022-07-01T08:25:24;17.70;99.90
16627;DHT22;8427;52.204;7.202;2022-07-01T08:28:02;18.00;99.90
16627;DHT22;8427;52.204;7.202;2022-07-01T08:30:30;18.30;99.90
16627;DHT22;8427;52.204;7.202;2022-07-01T08:32:58;18.30;99.90
16627;DHT22;8427;52.204;7.202;2022-07-01T08:35:26;18.40;99.90
16627;DHT22;8427;52.204;7.202;2022-07-01T08:37:55;18.60;99.90
16627;DHT22;8427;52.204;7.202;2022-07-01T08:40:26;18.70;99.90
16627;DHT22;8427;52.204;7.202;2022-07-01T08:42:56;18.70;99.90
16627;DHT22;8427;52.204;7.202;2022-07-01T08:45:28;18.60;99.90
16627;DHT22;8427;52.204;7.202;2022-07-01T08:47:58;19.00;99.90
16627;DHT22;8427;52.204;7.202;2022-07-01T08:50:29;19.20;99.90
16627;DHT22;8427;52.204;7.202;2022-07-01T08:52:57;19.20;99.90
16627;DHT22;8427;52.204;7.202;2022-07-01T08:55:26;19.10;99.90
16627;DHT22;8427;52.204;7.202;2022-07-01T08:57:54;19.20;99.90
16627;DHT22;8427;52.204;7.202;2022-07-01T09:00:30;19.40;99.90
16627;DHT22;8427;52.204;7.202;2022-07-01T09:03:00;19.40;99.90
16627;DHT22;8427;52.204;7.202;2022-07-01T09:05:29;19.30;99.90
16627;DHT22;8427;52.204;7.202;2022-07-01T09:07:59;19.40;99.90
16627;DHT22;8427;52.204;7.202;2022-07-01T09:10:28;19.50;99.90
16627;DHT22;8427;52.204;7.202;2022-07-01T09:13:03;19.20;99.90
16627;DHT22;8427;52.204;7.202;2022-07-01T09:15:34;18.90;99.90
16627;DHT22;8427;52.204;7.202;2022-07-01T09:18:04;18.80;99.90
16627;DHT22;8427;52.204;7.202;2022-07-01T09:20:35;18.90;99.90
16627;DHT22;8427;52.204;7.202;2022-07-01T09:23:05;18.80;99.90
16627;DHT22;8427;52.204;7.202;2022-07-01T09:25:35;18.90;99.90
16627;DHT22;8427;52.204;7.202;2022-07-01T09:28:18;18.90;99.90
16627;DHT22;8427;52.204;7.202;2022-07-01T09:30:50;18.80;99.90
16627;DHT22;8427;52.204;7.202;2022-07-01T09:33:19;18.50;99.90
16627;DHT22;8427;52.204;7.202;2022-07-01T09:35:48;18.40;99.90
16627;DHT22;8427;52.204;7.202;2022-07-01T09:38:17;18.70;99.90
16627;DHT22;8427;52.204;7.202;2022-07-01T09:40:59;19.00;99.90
16627;DHT22;8427;52.204;7.202;2022-07-01T09:43:29;19.10;99.90
16627;DHT22;8427;52.204;7.202;2022-07-01T09:46:00;19.00;99.90
16627;DHT22;8427;52.204;7.202;2022-07-01T09:48:42;19.00;99.90
16627;DHT22;8427;52.204;7.202;2022-07-01T09:51:13;19.10;99.90
16627;DHT22;8427;52.204;7.202;2022-07-01T09:53:42;19.20;99.90
16627;DHT22;8427;52.204;7.202;2022-07-01T09:56:10;19.30;99.90
16627;DHT22;8427;52.204;7.202;2022-07-01T09:58:39;19.30;99.90
16627;DHT22;8427;52.204;7.202;2022-07-01T10:01:13;19.80;99.90
16627;DHT22;8427;52.204;7.202;2022-07-01T10:03:41;20.00;99.90
16627;DHT22;8427;52.204;7.202;2022-07-01T10:06:46;19.80;99.90
16627;DHT22;8427;52.204;7.202;2022-07-01T10:09:38;20.00;99.90
16627;DHT22;8427;52.204;7.202;2022-07-01T10:12:31;20.20;99.90
16627;DHT22;8427;52.204;7.202;2022-07-01T10:15:01;19.90;99.90
16627;DHT22;8427;52.204;7.202;2022-07-01T10:17:35;19.60;99.90
16627;DHT22;8427;52.204;7.202;2022-07-01T10:20:11;19.20;99.90
16627;DHT22;8427;52.204;7.202;2022-07-01T10:22:43;19.10;99.90
16627;DHT22;8427;52.204;7.202;2022-07-01T10:25:33;19.10;99.90
16627;DHT22;8427;52.204;7.202;2022-07-01T10:28:18;19.20;99.90
16627;DHT22;8427;52.204;7.202;2022-07-01T10:30:58;19.30;99.90
16627;DHT22;8427;52.204;7.202;2022-07-01T10:33:32;19.50;99.90
16627;DHT22;8427;52.204;7.202;2022-07-01T10:36:05;19.80;99.90
16627;DHT22;8427;52.204;7.202;2022-07-01T10:38:34;19.90;99.90
16627;DHT22;8427;52.204;7.202;2022-07-01T10:41:04;20.10;99.90
16627;DHT22;8427;52.204;7.202;2022-07-01T10:43:38;20.30;99.90
16627;DHT22;8427;52.204;7.202;2022-07-01T10:46:08;20.20;99.90
16627;DHT22;8427;52.204;7.202;2022-07-01T10:48:38;20.20;99.90
16627;DHT22;8427;52.204;7.202;2022-07-01T10:51:06;20.30;99.90
16627;DHT22;8427;52.204;7.202;2022-07-01T10:53:47;20.30;99.90
16627;DHT22;8427;52.204;7.202;2022-07-01T10:56:37;20.40;99.90
16627;DHT22;8427;52.204;7.202;2022-07-01T10:59:06;20.50;99.90
16627;DHT22;8427;52.204;7.202;2022-07-01T11:01:34;20.80;99.90
16627;DHT22;8427;52.204;7.202;2022-07-01T11:04:05;20.80;99.90
16627;DHT22;8427;52.204;7.202;2022-07-01T11:06:34;21.10;99.90
16627;DHT22;8427;52.204;7.202;2022-07-01T11:09:05;21.30;99.90
16627;DHT22;8427;52.204;7.202;2022-07-01T11:11:34;21.30;99.90
16627;DHT22;8427;52.204;7.202;2022-07-01T11:14:02;21.50;99.90
16627;DHT22;8427;52.204;7.202;2022-07-01T11:16:30;21.80;99.90
16627;DHT22;8427;52.204;7.202;2022-07-01T11:18:59;22.30;99.90
16627;DHT22;8427;52.204;7.202;2022-07-01T11:21:28;22.10;99.90
16627;DHT22;8427;52.204;7.202;2022-07-01T11:23:56;21.90;99.90
16627;DHT22;8427;52.204;7.202;2022-07-01T11:26:24;21.80;99.90
16627;DHT22;8427;52.204;7.202;2022-07-01T11:28:53;22.00;99.90
16627;DHT22;8427;52.204;7.202;2022-07-01T11:31:31;22.10;99.90
16627;DHT22;8427;52.204;7.202;2022-07-01T11:34:00;22.10;99.90
16627;DHT22;8427;52.204;7.202;2022-07-01T11:36:30;21.90;99.90
16627;DHT22;8427;52.204;7.202;2022-07-01T11:39:17;21.40;99.90
16627;DHT22;8427;52.204;7.202;2022-07-01T11:41:55;21.30;99.90
16627;DHT22;8427;52.204;7.202;2022-07-01T11:44:35;21.40;99.90
16627;DHT22;8427;52.204;7.202;2022-07-01T11:47:04;21.60;99.90
16627;DHT22;8427;52.204;7.202;2022-07-01T11:49:33;21.80;99.90
16627;DHT22;8427;52.204;7.202;2022-07-01T11:52:06;22.00;99.90
16627;DHT22;8427;52.204;7.202;2022-07-01T11:54:36;21.50;99.90
16627;DHT22;8427;52.204;7.202;2022-07-01T11:57:10;21.10;99.90
16627;DHT22;8427;52.204;7.202;2022-07-01T11:59:38;20.80;99.90
16627;DHT22;8427;52.204;7.202;2022-07-01T12:02:09;20.60;99.90
16627;DHT22;8427;52.204;7.202;2022-07-01T12:04:39;21.00;99.90
16627;DHT22;8427;52.204;7.202;2022-07-01T12:07:09;21.60;99.90
16627;DHT22;8427;52.204;7.202;2022-07-01T12:09:37;22.00;99.90
16627;DHT22;8427;52.204;7.202;2022-07-01T12:12:14;22.50;99.90
16627;DHT22;8427;52.204;7.202;2022-07-01T12:14:49;22.60;99.90
16627;DHT22;8427;52.204;7.202;2022-07-01T12:17:19;22.60;99.90
16627;DHT22;8427;52.204;7.202;2022-07-01T12:19:48;22.50;99.90
16627;DHT22;8427;52.204;7.202;2022-07-01T12:22:19;22.70;99.90
16627;DHT22;8427;52.204;7.202;2022-07-01T12:24:50;23.00;99.90
16627;DHT22;8427;52.204;7.202;2022-07-01T12:27:20;22.90;99.90
16627;DHT22;8427;52.204;7.202;2022-07-01T12:29:51;22.30;99.90
16627;DHT22;8427;52.204;7.202;2022-07-01T12:32:22;22.00;99.90
16627;DHT22;8427;52.204;7.202;2022-07-01T12:34:52;21.60;99.90
16627;DHT22;8427;52.204;7.202;2022-07-01T12:37:29;21.50;99.90
16627;DHT22;8427;52.204;7.202;2022-07-01T12:39:59;21.10;99.90
16627;DHT22;8427;52.204;7.202;2022-07-01T12:42:29;21.30;99.90
16627;DHT22;8427;52.204;7.202;2022-07-01T12:44:59;21.30;99.90
16627;DHT22;8427;52.204;7.202;2022-07-01T12:47:29;21.40;99.90
16627;DHT22;8427;52.204;7.202;2022-07-01T12:50:17;21.40;99.90
16627;DHT22;8427;52.204;7.202;2022-07-01T12:52:59;21.90;99.90
16627;DHT22;8427;52.204;7.202;2022-07-01T12:55:31;22.40;99.90
16627;DHT22;8427;52.204;7.202;2022-07-01T12:58:01;22.80;99.90
16627;DHT22;8427;52.204;7.202;2022-07-01T13:00:30;23.10;99.90
16627;DHT22;8427;52.204;7.202;2022-07-01T13:02:59;22.60;99.90
16627;DHT22;8427;52.204;7.202;2022-07-01T13:05:28;22.40;99.90
16627;DHT22;8427;52.204;7.202;2022-07-01T13:07:58;22.50;99.90
16627;DHT22;8427;52.204;7.202;2022-07-01T13:10:26;22.80;99.90
16627;DHT22;8427;52.204;7.202;2022-07-01T13:12:55;23.10;99.90
16627;DHT22;8427;52.204;7.202;2022-07-01T13:15:24;23.10;99.90
16627;DHT22;8427;52.204;7.202;2022-07-01T13:17:52;22.80;99.90
16627;DHT22;8427;52.204;7.202;2022-07-01T13:20:20;22.70;99.90
16627;DHT22;8427;52.204;7.202;2022-07-01T13:22:48;22.40;99.90
16627;DHT22;8427;52.204;7.202;2022-07-01T13:25:18;22.30;99.90
16627;DHT22;8427;52.204;7.202;2022-07-01T13:27:46;22.40;99.90
16627;DHT22;8427;52.204;7.202;2022-07-01T13:30:15;22.60;99.90
16627;DHT22;8427;52.204;7.202;2022-07-01T13:32:44;22.20;99.90
16627;DHT22;8427;52.204;7.202;2022-07-01T13:35:13;21.90;99.90
16627;DHT22;8427;52.204;7.202;2022-07-01T13:37:42;22.20;99.90
16627;DHT22;8427;52.204;7.202;2022-07-01T13:40:10;22.50;99.90
16627;DHT22;8427;52.204;7.202;2022-07-01T13:42:40;22.90;99.90
16627;DHT22;8427;52.204;7.202;2022-07-01T13:45:08;23.20;99.90
16627;DHT22;8427;52.204;7.202;2022-07-01T13:47:37;23.40;99.90
16627;DHT22;8427;52.204;7.202;2022-07-01T13:50:06;23.40;99.90
16627;DHT22;8427;52.204;7.202;2022-07-01T13:52:34;23.40;99.90
16627;DHT22;8427;52.204;7.202;2022-07-01T13:55:03;23.00;99.90
16627;DHT22;8427;52.204;7.202;2022-07-01T13:57:31;22.70;99.90
16627;DHT22;8427;52.204;7.202;2022-07-01T14:00:01;22.30;99.90
16627;DHT22;8427;52.204;7.202;2022-07-01T14:02:29;22.10;99.90
16627;DHT22;8427;52.204;7.202;2022-07-01T14:04:58;22.20;99.90
16627;DHT22;8427;52.204;7.202;2022-07-01T14:07:26;22.30;99.90
16627;DHT22;8427;52.204;7.202;2022-07-01T14:09:54;22.30;99.90
16627;DHT22;8427;52.204;7.202;2022-07-01T14:12:23;22.60;99.90
16627;DHT22;8427;52.204;7.202;2022-07-01T14:14:55;22.80;99.90
16627;DHT22;8427;52.204;7.202;2022-07-01T14:17:25;23.10;99.90
16627;DHT22;8427;52.204;7.202;2022-07-01T14:19:54;23.20;99.90
16627;DHT22;8427;52.204;7.202;2022-07-01T14:22:23;23.30;99.90
16627;DHT22;8427;52.204;7.202;2022-07-01T14:24:52;23.20;99.90
16627;DHT22;8427;52.204;7.202;2022-07-01T14:27:21;23.00;99.90
16627;DHT22;8427;52.204;7.202;2022-07-01T14:29:49;23.00;99.90
16627;DHT22;8427;52.204;7.202;2022-07-01T14:32:24;23.10;99.90
16627;DHT22;8427;52.204;7.202;2022-07-01T14:34:54;23.20;99.90
16627;DHT22;8427;52.204;7.202;2022-07-01T14:37:22;23.50;99.90
16627;DHT22;8427;52.204;7.202;2022-07-01T14:39:50;23.70;99.90
16627;DHT22;8427;52.204;7.202;2022-07-01T14:42:23;23.70;99.90
16627;DHT22;8427;52.204;7.202;2022-07-01T14:44:51;23.10;99.90
16627;DHT22;8427;52.204;7.202;2022-07-01T14:47:20;22.80;99.90
16627;DHT22;8427;52.204;7.202;2022-07-01T14:49:50;23.00;99.90
16627;DHT22;8427;52.204;7.202;2022-07-01T14:52:20;23.00;99.90
16627;DHT22;8427;52.204;7.202;2022-07-01T14:54:49;23.00;99.90
16627;DHT22;8427;52.204;7.202;2022-07-01T14:57:17;23.00;99.90
16627;DHT22;8427;52.204;7.202;2022-07-01T14:59:45;23.20;99.90
16627;DHT22;8427;52.204;7.202;2022-07-01T15:02:13;23.40;99.90
16627;DHT22;8427;52.204;7.202;2022-07-01T15:04:42;23.50;99.90
16627;DHT22;8427;52.204;7.202;2022-07-01T15:07:11;23.60;99.90
16627;DHT22;8427;52.204;7.202;2022-07-01T15:09:40;23.80;99.90
16627;DHT22;8427;52.204;7.202;2022-07-01T15:12:08;23.40;99.90
16627;DHT22;8427;52.204;7.202;2022-07-01T15:14:36;23.60;99.90
16627;DHT22;8427;52.204;7.202;2022-07-01T15:17:05;23.70;99.90
16627;DHT22;8427;52.204;7.202;2022-07-01T15:19:33;23.50;99.90
16627;DHT22;8427;52.204;7.202;2022-07-01T15:22:04;23.30;99.90
16627;DHT22;8427;52.204;7.202;2022-07-01T15:24:36;23.40;99.90
16627;DHT22;8427;52.204;7.202;2022-07-01T15:27:05;23.30;99.90
16627;DHT22;8427;52.204;7.202;2022-07-01T15:29:33;23.00;99.90
16627;DHT22;8427;52.204;7.202;2022-07-01T15:32:02;22.60;99.90
16627;DHT22;8427;52.204;7.202;2022-07-01T15:34:31;22.70;99.90
16627;DHT22;8427;52.204;7.202;2022-07-01T15:37:00;22.90;99.90
16627;DHT22;8427;52.204;7.202;2022-07-01T15:39:28;23.30;99.90
16627;DHT22;8427;52.204;7.202;2022-07-01T15:41:57;24.00;99.90
16627;DHT22;8427;52.204;7.202;2022-07-01T15:44:29;24.40;99.90
16627;DHT22;8427;52.204;7.202;2022-07-01T15:46:57;24.60;99.90
16627;DHT22;8427;52.204;7.202;2022-07-01T15:49:45;24.60;99.90
16627;DHT22;8427;52.204;7.202;2022-07-01T15:52:13;24.30;99.90
16627;DHT22;8427;52.204;7.202;2022-07-01T15:54:41;23.90;99.90
16627;DHT22;8427;52.204;7.202;2022-07-01T15:57:11;23.70;99.90
16627;DHT22;8427;52.204;7.202;2022-07-01T15:59:40;24.20;99.90
16627;DHT22;8427;52.204;7.202;2022-07-01T16:02:08;24.50;99.90
16627;DHT22;8427;52.204;7.202;2022-07-01T16:04:37;24.70;99.90
16627;DHT22;8427;52.204;7.202;2022-07-01T16:07:09;24.70;99.90